createdAt,value
2023-08-07T00:02:00.703Z,0.40
2023-08-07T00:04:27.094Z,0.73
2023-08-07T00:06:53.567Z,0.60
2023-08-07T00:09:19.931Z,0.90
2023-08-07T00:11:48.779Z,0.65
2023-08-07T00:14:20.541Z,0.73
2023-08-07T00:16:47.250Z,0.90
2023-08-07T00:19:13.959Z,1.10
2023-08-07T00:21:40.970Z,0.95
2023-08-07T00:24:07.371Z,1.27
2023-08-07T00:26:33.985Z,1.05
2023-08-07T00:29:00.492Z,1.48
2023-08-07T00:31:27.027Z,0.77
2023-08-07T00:33:55.484Z,0.90
2023-08-07T00:36:21.962Z,0.70
2023-08-07T00:38:55.132Z,0.90
2023-08-07T00:41:25.034Z,0.90
2023-08-07T00:43:54.763Z,1.10
2023-08-07T00:46:21.306Z,0.80
2023-08-07T00:48:47.741Z,1.58
2023-08-07T00:51:14.644Z,1.00
2023-08-07T00:53:41.517Z,0.95
2023-08-07T00:56:08.493Z,1.00
2023-08-07T00:58:35.037Z,0.98
2023-08-07T01:01:08.065Z,1.52
2023-08-07T01:03:35.870Z,1.15
2023-08-07T01:06:02.851Z,1.42
2023-08-07T01:08:30.196Z,0.93
2023-08-07T01:11:10.628Z,1.25
2023-08-07T01:14:00.073Z,1.40
2023-08-07T01:16:33.291Z,1.00
2023-08-07T01:19:02.022Z,0.82
2023-08-07T01:21:28.416Z,1.23
2023-08-07T01:23:54.811Z,1.05
2023-08-07T01:26:22.548Z,1.95
2023-08-07T01:29:08.826Z,1.60
2023-08-07T01:31:39.594Z,2.33
2023-08-07T01:34:09.426Z,1.20
2023-08-07T01:36:36.702Z,1.42
2023-08-07T01:39:04.783Z,1.60
2023-08-07T01:41:31.881Z,1.15
2023-08-07T01:44:00.256Z,2.00
2023-08-07T01:46:26.998Z,1.33
2023-08-07T01:48:58.889Z,1.30
2023-08-07T01:51:25.610Z,1.10
2023-08-07T01:53:52.020Z,1.50
2023-08-07T01:56:18.463Z,1.10
2023-08-07T01:58:49.333Z,1.00
2023-08-07T02:01:20.458Z,1.27
2023-08-07T02:03:47.276Z,1.05
2023-08-07T02:06:13.714Z,1.52
2023-08-07T02:08:43.934Z,1.88
2023-08-07T02:11:10.417Z,1.90
2023-08-07T02:13:36.822Z,1.33
2023-08-07T02:16:04.689Z,0.93
2023-08-07T02:18:31.178Z,1.23
2023-08-07T02:20:57.599Z,1.20
2023-08-07T02:23:23.985Z,1.23
2023-08-07T02:25:50.389Z,0.73
2023-08-07T02:28:16.861Z,1.20
2023-08-07T02:30:47.931Z,1.40
2023-08-07T02:33:14.390Z,0.98
2023-08-07T02:35:40.752Z,1.77
2023-08-07T02:38:07.199Z,1.02
2023-08-07T02:40:33.649Z,0.95
2023-08-07T02:43:00.034Z,1.25
2023-08-07T02:45:26.460Z,1.65
2023-08-07T02:47:52.870Z,1.10
2023-08-07T02:50:19.328Z,1.30
2023-08-07T02:52:46.840Z,1.42
2023-08-07T02:55:13.194Z,1.73
2023-08-07T02:57:42.479Z,2.97
2023-08-07T03:00:09.513Z,1.50
2023-08-07T03:02:35.900Z,1.10
2023-08-07T03:05:02.299Z,1.50
2023-08-07T03:07:28.807Z,1.52
2023-08-07T03:09:55.215Z,0.98
2023-08-07T03:12:22.286Z,1.50
2023-08-07T03:14:48.678Z,1.33
2023-08-07T03:17:15.124Z,1.15
2023-08-07T03:19:43.890Z,1.08
2023-08-07T03:22:10.723Z,0.77
2023-08-07T03:24:37.102Z,1.07
2023-08-07T03:27:03.738Z,1.08
2023-08-07T03:29:30.138Z,0.95
2023-08-07T03:31:56.885Z,0.70
2023-08-07T03:34:23.371Z,0.88
2023-08-07T03:36:49.800Z,0.70
2023-08-07T03:39:16.447Z,0.63
2023-08-07T03:41:42.881Z,0.90
2023-08-07T03:44:09.292Z,0.93
2023-08-07T03:46:35.704Z,0.73
2023-08-07T03:49:02.112Z,0.80
2023-08-07T03:51:33.676Z,1.10
2023-08-07T03:54:00.661Z,1.05
2023-08-07T03:56:27.055Z,0.80
2023-08-07T03:58:53.854Z,0.63
2023-08-07T04:01:20.348Z,0.73
2023-08-07T04:03:49.225Z,1.00
2023-08-07T04:06:17.097Z,0.57
2023-08-07T04:08:46.298Z,0.50
2023-08-07T04:11:12.737Z,1.23
2023-08-07T04:13:39.264Z,1.00
2023-08-07T04:16:06.403Z,0.90
2023-08-07T04:18:39.063Z,0.80
2023-08-07T04:21:05.742Z,1.17
2023-08-07T04:23:32.601Z,0.90
2023-08-07T04:26:00.441Z,0.87
2023-08-07T04:28:29.363Z,0.60
2023-08-07T04:30:55.970Z,0.98
2023-08-07T04:33:26.370Z,0.90
2023-08-07T04:35:53.124Z,1.35
2023-08-07T04:38:20.343Z,1.10
2023-08-07T04:40:48.045Z,1.27
2023-08-07T04:43:15.615Z,0.98
2023-08-07T04:45:42.584Z,1.23
2023-08-07T04:48:09.435Z,1.02
2023-08-07T04:50:36.325Z,1.47
2023-08-07T04:53:02.773Z,1.00
2023-08-07T04:55:29.224Z,1.40
2023-08-07T04:57:57.239Z,1.40
2023-08-07T05:00:24.111Z,1.38
2023-08-07T05:02:50.894Z,1.60
2023-08-07T05:05:23.760Z,1.38
2023-08-07T05:07:50.510Z,1.25
2023-08-07T05:10:16.940Z,1.23
2023-08-07T05:12:43.356Z,1.50
2023-08-07T05:15:10.400Z,1.53
2023-08-07T05:17:36.909Z,1.20
2023-08-07T05:20:03.755Z,1.50
2023-08-07T05:22:34.192Z,1.48
2023-08-07T05:25:00.963Z,0.85
2023-08-07T05:27:27.427Z,1.30
2023-08-07T05:29:53.889Z,2.90
2023-08-07T05:32:20.451Z,1.27
2023-08-07T05:34:46.886Z,1.20
2023-08-07T05:37:13.338Z,1.33
2023-08-07T05:39:39.702Z,1.03
2023-08-07T05:42:06.355Z,1.48
2023-08-07T05:44:32.780Z,1.20
2023-08-07T05:46:59.155Z,1.02
2023-08-07T05:49:26.602Z,1.20
2023-08-07T05:51:55.802Z,1.03
2023-08-07T05:54:22.866Z,1.10
2023-08-07T05:56:52.527Z,1.13
2023-08-07T05:59:22.436Z,1.23
2023-08-07T06:01:49.350Z,1.27
2023-08-07T06:04:15.888Z,1.50
2023-08-07T06:06:43.695Z,1.15
2023-08-07T06:09:10.634Z,1.38
2023-08-07T06:11:38.023Z,1.70
2023-08-07T06:14:05.993Z,1.60
2023-08-07T06:16:32.654Z,1.50
2023-08-07T06:18:59.200Z,1.58
2023-08-07T06:21:25.752Z,1.52
2023-08-07T06:23:52.734Z,1.30
2023-08-07T06:26:19.546Z,1.60
2023-08-07T06:28:46.879Z,1.60
2023-08-07T06:31:14.848Z,1.40
2023-08-07T06:33:41.362Z,2.67
2023-08-07T06:36:09.600Z,1.92
2023-08-07T06:38:36.011Z,1.40
2023-08-07T06:41:02.587Z,1.30
2023-08-07T06:43:29.168Z,1.92
2023-08-07T06:45:56.948Z,3.13
2023-08-07T06:48:24.085Z,2.40
2023-08-07T06:50:52.013Z,1.85
2023-08-07T06:53:19.068Z,1.50
2023-08-07T06:55:46.149Z,1.35
2023-08-07T06:58:17.547Z,1.63
2023-08-07T07:00:46.560Z,1.77
2023-08-07T07:03:13.213Z,1.38
2023-08-07T07:05:39.662Z,1.73
2023-08-07T07:08:07.831Z,1.70
2023-08-07T07:10:35.945Z,1.17
2023-08-07T07:13:02.458Z,1.15
2023-08-07T07:15:28.933Z,1.80
2023-08-07T07:17:59.628Z,1.87
2023-08-07T07:20:27.737Z,2.55
2023-08-07T07:22:54.217Z,2.05
2023-08-07T07:25:22.209Z,1.80
2023-08-07T07:27:55.595Z,2.25
2023-08-07T07:30:24.503Z,1.37
2023-08-07T07:32:51.329Z,1.83
2023-08-07T07:35:17.718Z,1.30
2023-08-07T07:37:44.197Z,1.77
2023-08-07T07:40:12.055Z,1.40
2023-08-07T07:42:38.749Z,1.20
2023-08-07T07:45:06.248Z,1.40
2023-08-07T07:47:32.674Z,1.45
2023-08-07T07:50:08.567Z,2.30
2023-08-07T07:52:35.260Z,2.13
2023-08-07T07:55:01.830Z,2.20
2023-08-07T07:57:28.230Z,2.55
2023-08-07T07:59:54.675Z,1.67
2023-08-07T08:02:23.301Z,1.50
2023-08-07T08:04:49.845Z,1.55
2023-08-07T08:07:16.606Z,1.47
2023-08-07T08:09:44.319Z,2.45
2023-08-07T08:12:11.407Z,1.85
2023-08-07T08:17:24.907Z,1.80
2023-08-07T08:18:10.585Z,1.55
2023-08-07T08:19:51.742Z,1.40
2023-08-07T08:22:18.741Z,1.92
2023-08-07T08:24:45.124Z,1.85
2023-08-07T08:27:11.508Z,1.55
2023-08-07T08:29:38.012Z,1.40
2023-08-07T08:32:05.029Z,1.40
2023-08-07T08:34:31.424Z,1.60
2023-08-07T08:36:58.436Z,1.60
2023-08-07T08:39:24.952Z,1.73
2023-08-07T08:41:51.419Z,1.40
2023-08-07T08:44:20.527Z,1.30
2023-08-07T08:46:50.444Z,1.80
2023-08-07T08:49:25.815Z,1.70
2023-08-07T08:51:52.331Z,1.33
2023-08-07T08:54:19.426Z,1.50
2023-08-07T08:56:46.644Z,1.57
2023-08-07T08:59:13.444Z,1.33
2023-08-07T09:01:40.573Z,1.45
2023-08-07T09:04:07.106Z,0.88
2023-08-07T09:06:33.891Z,1.40
2023-08-07T09:09:02.258Z,1.20
2023-08-07T09:11:32.715Z,1.48
2023-08-07T09:14:02.156Z,1.35
2023-08-07T09:16:29.810Z,1.40
2023-08-07T09:18:59.697Z,1.25
2023-08-07T09:21:26.830Z,1.67
2023-08-07T09:23:53.201Z,1.50
2023-08-07T09:26:24.673Z,1.33
2023-08-07T09:28:54.100Z,1.30
2023-08-07T09:31:21.828Z,1.40
2023-08-07T09:33:51.755Z,1.40
2023-08-07T09:36:19.088Z,1.30
2023-08-07T09:38:50.746Z,1.63
2023-08-07T09:41:20.989Z,1.63
2023-08-07T09:43:47.452Z,1.00
2023-08-07T09:46:14.049Z,1.20
2023-08-07T09:48:45.103Z,1.60
2023-08-07T09:51:12.161Z,2.13
2023-08-07T09:53:38.664Z,1.38
2023-08-07T09:56:05.315Z,1.00
2023-08-07T09:58:31.829Z,1.20
2023-08-07T10:01:03.929Z,1.15
2023-08-07T10:03:31.462Z,1.10
2023-08-07T10:05:58.773Z,1.30
2023-08-07T10:08:25.915Z,1.30
2023-08-07T10:10:53.095Z,1.07
2023-08-07T10:13:23.635Z,1.38
2023-08-07T10:15:55.159Z,1.40
2023-08-07T10:18:22.646Z,1.67
2023-08-07T10:20:49.494Z,1.58
2023-08-07T10:23:18.257Z,1.13
2023-08-07T10:25:47.499Z,1.60
2023-08-07T10:28:17.751Z,1.23
2023-08-07T10:30:44.272Z,1.10
2023-08-07T10:33:13.078Z,1.13
2023-08-07T10:35:45.978Z,1.00
2023-08-07T10:38:12.650Z,2.20
2023-08-07T10:41:00.638Z,1.00
2023-08-07T10:43:28.748Z,1.10
2023-08-07T10:46:03.402Z,1.48
2023-08-07T10:48:29.815Z,1.40
2023-08-07T10:50:56.233Z,1.15
2023-08-07T10:53:36.048Z,1.20
2023-08-07T10:56:09.053Z,1.08
2023-08-07T10:58:37.539Z,1.40
2023-08-07T11:01:31.304Z,1.80
2023-08-07T11:04:03.870Z,1.30
2023-08-07T11:06:36.683Z,1.10
2023-08-07T11:09:05.896Z,1.65
2023-08-07T11:11:47.197Z,1.73
2023-08-07T11:14:17.845Z,0.90
2023-08-07T11:16:45.643Z,1.58
2023-08-07T11:19:20.693Z,1.10
2023-08-07T11:21:48.881Z,1.20
2023-08-07T11:24:17.342Z,1.42
2023-08-07T11:26:45.640Z,0.90
2023-08-07T11:29:12.163Z,1.00
2023-08-07T11:31:38.814Z,1.08
2023-08-07T11:34:05.332Z,1.20
2023-08-07T11:36:32.854Z,1.02
2023-08-07T11:38:59.238Z,1.27
2023-08-07T11:41:25.794Z,1.70
2023-08-07T11:43:54.861Z,1.20
2023-08-07T11:46:22.475Z,1.00
2023-08-07T11:48:49.097Z,0.98
2023-08-07T11:51:15.645Z,1.17
2023-08-07T11:53:43.024Z,1.55
2023-08-07T11:56:11.683Z,1.20
2023-08-07T11:58:41.399Z,1.10
2023-08-07T12:01:11.363Z,1.60
2023-08-07T12:03:40.048Z,1.20
2023-08-07T12:06:08.148Z,1.45
2023-08-07T12:08:39.593Z,1.05
2023-08-07T12:11:08.227Z,1.05
2023-08-07T12:13:36.370Z,1.42
2023-08-07T12:16:06.464Z,1.13
2023-08-07T12:18:33.764Z,1.08
2023-08-07T12:21:05.579Z,1.23
2023-08-07T12:23:35.344Z,1.38
2023-08-07T12:26:02.511Z,1.60
2023-08-07T12:28:28.869Z,1.10
2023-08-07T12:30:55.452Z,1.20
2023-08-07T12:33:24.556Z,0.98
2023-08-07T12:35:51.100Z,1.35
2023-08-07T12:38:18.515Z,1.77
2023-08-07T12:40:45.153Z,0.90
2023-08-07T12:43:11.724Z,0.80
2023-08-07T12:48:08.372Z,1.20
2023-08-07T12:50:35.305Z,0.98
2023-08-07T12:53:02.624Z,1.00
2023-08-07T12:55:30.678Z,0.60
2023-08-07T12:57:58.635Z,1.10
2023-08-07T13:00:27.614Z,0.52
2023-08-07T13:02:55.892Z,0.98
2023-08-07T13:05:23.589Z,0.83
2023-08-07T13:07:55.126Z,0.60
2023-08-07T13:10:22.406Z,0.93
2023-08-07T13:12:50.477Z,1.05
2023-08-07T13:15:18.314Z,1.00
2023-08-07T13:17:45.314Z,0.67
2023-08-07T13:20:14.067Z,0.70
2023-08-07T13:22:43.442Z,0.80
2023-08-07T13:25:11.040Z,0.60
2023-08-07T13:27:38.340Z,0.82
2023-08-07T13:30:05.698Z,0.83
2023-08-07T13:32:33.285Z,1.10
2023-08-07T13:34:59.856Z,0.65
2023-08-07T13:37:26.406Z,0.75
2023-08-07T13:39:54.047Z,1.38
2023-08-07T13:42:20.734Z,0.87
2023-08-07T13:44:47.256Z,0.88
2023-08-07T13:47:13.678Z,0.70
2023-08-07T13:49:40.366Z,0.70
2023-08-07T13:52:07.267Z,1.52
2023-08-07T13:54:33.875Z,0.53
2023-08-07T13:57:00.375Z,0.60
2023-08-07T13:59:27.077Z,0.80
2023-08-07T14:01:55.279Z,0.82
2023-08-07T14:04:21.960Z,1.25
2023-08-07T14:06:48.429Z,0.60
2023-08-07T14:09:15.146Z,0.50
2023-08-07T14:11:41.691Z,0.90
2023-08-07T14:14:08.309Z,0.65
2023-08-07T14:16:35.788Z,0.70
2023-08-07T14:19:03.599Z,0.80
2023-08-07T14:21:30.005Z,0.88
2023-08-07T14:23:56.405Z,0.82
2023-08-07T14:26:23.060Z,1.08
2023-08-07T14:28:50.820Z,0.70
2023-08-07T14:31:17.310Z,0.50
2023-08-07T14:33:43.758Z,0.95
2023-08-07T14:36:10.331Z,0.70
2023-08-07T14:38:36.729Z,0.93
2023-08-07T14:41:06.279Z,0.57
2023-08-07T14:43:33.069Z,0.73
2023-08-07T14:45:59.821Z,0.80
2023-08-07T14:48:26.312Z,0.85
2023-08-07T14:50:52.957Z,0.60
2023-08-07T14:53:19.459Z,0.95
2023-08-07T14:55:46.375Z,1.10
2023-08-07T14:58:13.612Z,0.70
2023-08-07T15:00:40.093Z,1.00
2023-08-07T15:03:06.599Z,0.60
2023-08-07T15:05:33.334Z,0.70
2023-08-07T15:08:02.082Z,1.00
2023-08-07T15:10:29.449Z,1.05
2023-08-07T15:12:56.864Z,0.75
2023-08-07T15:15:23.677Z,1.35
2023-08-07T15:17:50.134Z,0.85
2023-08-07T15:20:16.747Z,0.73
2023-08-07T15:22:43.224Z,1.05
2023-08-07T15:25:09.946Z,0.68
2023-08-07T15:27:36.413Z,1.00
2023-08-07T15:30:03.204Z,0.90
2023-08-07T15:32:29.873Z,1.00
2023-08-07T15:34:56.296Z,0.93
2023-08-07T15:37:22.764Z,1.02
2023-08-07T15:39:49.143Z,0.80
2023-08-07T15:42:15.563Z,0.77
2023-08-07T15:44:41.908Z,0.90
2023-08-07T15:47:09.011Z,0.85
2023-08-07T15:49:36.621Z,0.80
2023-08-07T15:52:03.086Z,0.98
2023-08-07T15:54:29.457Z,0.70
2023-08-07T15:56:58.547Z,0.83
2023-08-07T15:59:27.720Z,1.48
2023-08-07T16:01:54.176Z,0.77
2023-08-07T16:04:20.658Z,0.82
2023-08-07T16:06:47.048Z,1.05
2023-08-07T16:09:13.408Z,0.80
2023-08-07T16:11:39.844Z,0.80
2023-08-07T16:14:06.255Z,0.80
2023-08-07T16:16:32.774Z,0.80
2023-08-07T16:18:59.227Z,0.90
2023-08-07T16:21:25.647Z,1.13
2023-08-07T16:23:52.212Z,1.20
2023-08-07T16:26:18.661Z,0.80
2023-08-07T16:28:46.535Z,0.93
2023-08-07T16:31:13.115Z,0.77
2023-08-07T16:33:40.089Z,0.90
2023-08-07T16:36:06.902Z,0.88
2023-08-07T16:38:33.283Z,0.95
2023-08-07T16:40:59.746Z,0.90
2023-08-07T16:43:26.349Z,1.17
2023-08-07T16:45:53.206Z,0.93
2023-08-07T16:48:19.674Z,1.40
2023-08-07T16:50:56.879Z,0.98
2023-08-07T16:53:33.031Z,1.02
2023-08-07T16:55:59.491Z,1.10
2023-08-07T16:58:25.916Z,0.90
2023-08-07T17:00:52.450Z,1.00
2023-08-07T17:03:18.969Z,0.70
2023-08-07T17:05:45.397Z,0.82
2023-08-07T17:08:11.852Z,1.08
2023-08-07T17:10:38.226Z,0.73
2023-08-07T17:13:04.781Z,0.70
2023-08-07T17:15:31.255Z,0.80
2023-08-07T17:17:59.016Z,0.75
2023-08-07T17:20:25.456Z,0.65
2023-08-07T17:22:51.886Z,0.80
2023-08-07T17:25:18.287Z,1.30
2023-08-07T17:27:44.651Z,0.80
2023-08-07T17:30:11.299Z,0.65
2023-08-07T17:32:38.118Z,0.70
2023-08-07T17:35:05.082Z,1.00
2023-08-07T17:37:31.561Z,0.80
2023-08-07T17:39:57.973Z,0.73
2023-08-07T17:42:24.384Z,0.93
2023-08-07T17:44:51.608Z,0.85
2023-08-07T17:47:18.023Z,1.00
2023-08-07T17:49:44.427Z,0.70
2023-08-07T17:52:10.902Z,0.80
2023-08-07T17:54:38.808Z,0.70
2023-08-07T17:57:06.303Z,1.10
2023-08-07T17:59:32.786Z,0.70
2023-08-07T18:01:59.187Z,0.70
2023-08-07T18:04:25.634Z,0.70
2023-08-07T18:06:54.535Z,0.63
2023-08-07T18:09:20.902Z,0.50
2023-08-07T18:11:47.360Z,0.87
2023-08-07T18:14:13.766Z,0.57
2023-08-07T18:16:40.245Z,0.60
2023-08-07T18:19:06.656Z,0.50
2023-08-07T18:21:33.097Z,0.55
2023-08-07T18:23:59.508Z,0.60
2023-08-07T18:26:25.855Z,0.60
2023-08-07T18:28:52.257Z,0.70
2023-08-07T18:31:18.663Z,0.90
2023-08-07T18:33:45.043Z,0.50
2023-08-07T18:36:11.428Z,0.60
2023-08-07T18:38:37.834Z,0.60
2023-08-07T18:41:06.824Z,0.50
2023-08-07T18:43:33.436Z,0.60
2023-08-07T18:45:59.906Z,0.70
2023-08-07T18:48:26.409Z,0.70
2023-08-07T18:50:52.886Z,0.60
2023-08-07T18:53:19.243Z,0.60
2023-08-07T18:55:45.650Z,0.50
2023-08-07T18:58:12.122Z,0.57
2023-08-07T19:00:38.511Z,0.50
2023-08-07T19:03:08.103Z,0.60
2023-08-07T19:05:34.598Z,0.60
2023-08-07T19:08:00.960Z,0.68
2023-08-07T19:10:27.335Z,0.40
2023-08-07T19:12:53.799Z,0.80
2023-08-07T19:15:20.255Z,0.70
2023-08-07T19:17:46.903Z,0.88
2023-08-07T19:20:13.525Z,0.40
2023-08-07T19:22:40.545Z,0.73
2023-08-07T19:25:07.792Z,0.80
2023-08-07T19:27:34.232Z,0.60
2023-08-07T19:30:00.688Z,0.60
2023-08-07T19:32:27.534Z,0.68
2023-08-07T19:34:54.014Z,0.60
2023-08-07T19:37:20.470Z,0.60
2023-08-07T19:39:46.894Z,0.77
2023-08-07T19:42:13.335Z,0.63
2023-08-07T19:44:39.851Z,0.70
2023-08-07T19:47:06.418Z,0.90
2023-08-07T19:49:32.884Z,0.60
2023-08-07T19:51:59.333Z,0.90
2023-08-07T19:54:25.740Z,0.98
2023-08-07T19:56:52.392Z,0.95
2023-08-07T19:59:20.033Z,0.98
2023-08-07T20:01:46.480Z,0.97
2023-08-07T20:04:14.560Z,0.85
2023-08-07T20:06:41.179Z,0.88
2023-08-07T20:09:07.976Z,0.70
2023-08-07T20:11:38.276Z,0.63
2023-08-07T20:14:04.828Z,0.90
2023-08-07T20:16:32.865Z,0.60
2023-08-07T20:19:00.056Z,1.00
2023-08-07T20:21:26.534Z,1.08
2023-08-07T20:23:52.913Z,0.90
2023-08-07T20:26:19.911Z,0.80
2023-08-07T20:28:46.393Z,0.95
2023-08-07T20:31:12.898Z,1.23
2023-08-07T20:33:39.398Z,1.05
2023-08-07T20:36:06.474Z,1.10
2023-08-07T20:38:32.919Z,1.00
2023-08-07T20:40:59.450Z,1.20
2023-08-07T20:43:25.929Z,0.98
2023-08-07T20:45:52.334Z,1.08
2023-08-07T20:48:18.837Z,1.13
2023-08-07T20:50:45.271Z,1.20
2023-08-07T20:53:11.688Z,1.20
2023-08-07T20:55:38.084Z,1.02
2023-08-07T20:58:04.698Z,1.25
2023-08-07T21:00:31.133Z,1.20
2023-08-07T21:02:57.548Z,1.30
2023-08-07T21:05:24.019Z,1.30
2023-08-07T21:07:50.504Z,1.40
2023-08-07T21:10:17.067Z,1.42
2023-08-07T21:12:43.450Z,2.30
2023-08-07T21:15:10.650Z,1.50
2023-08-07T21:17:37.059Z,1.42
2023-08-07T21:20:03.907Z,1.73
2023-08-07T21:22:30.330Z,2.00
2023-08-07T21:24:56.810Z,1.90
2023-08-07T21:27:23.995Z,2.17
2023-08-07T21:29:50.405Z,2.10
2023-08-07T21:32:17.030Z,1.80
2023-08-07T21:34:43.411Z,1.77
2023-08-07T21:37:09.865Z,1.95
2023-08-07T21:39:36.274Z,2.13
2023-08-07T21:42:03.369Z,1.85
2023-08-07T21:44:29.914Z,1.80
2023-08-07T21:46:56.344Z,1.92
2023-08-07T21:49:22.841Z,2.08
2023-08-07T21:51:49.351Z,1.67
2023-08-07T21:54:17.222Z,1.80
2023-08-07T21:56:44.208Z,1.95
2023-08-07T21:59:10.798Z,1.60
2023-08-07T22:01:37.583Z,2.00
2023-08-07T22:04:04.296Z,2.33
2023-08-07T22:06:30.652Z,1.83
2023-08-07T22:08:57.076Z,2.10
2023-08-07T22:11:23.684Z,2.00
2023-08-07T22:13:50.096Z,2.38
2023-08-07T22:16:16.772Z,2.10
2023-08-07T22:18:43.221Z,3.10
2023-08-07T22:21:09.750Z,2.50
2023-08-07T22:23:36.190Z,2.08
2023-08-07T22:26:02.752Z,2.17
2023-08-07T22:28:29.248Z,2.10
2023-08-07T22:30:55.732Z,2.50
2023-08-07T22:33:22.127Z,2.70
2023-08-07T22:35:48.578Z,2.30
2023-08-07T22:38:15.064Z,2.40
2023-08-07T22:40:41.438Z,2.43
2023-08-07T22:43:10.056Z,2.25
2023-08-07T22:45:38.380Z,2.83
2023-08-07T22:48:05.158Z,2.30
2023-08-07T22:50:31.855Z,2.78
2023-08-07T22:52:58.334Z,2.97
2023-08-07T22:55:24.927Z,2.20
2023-08-07T22:57:51.326Z,2.63
2023-08-07T23:00:17.957Z,2.30
2023-08-07T23:02:44.448Z,2.03
2023-08-07T23:05:10.864Z,2.07
2023-08-07T23:07:37.800Z,2.35
2023-08-07T23:10:04.419Z,2.58
2023-08-07T23:12:30.778Z,2.53
2023-08-07T23:14:57.186Z,2.25
2023-08-07T23:17:23.721Z,2.57
2023-08-07T23:19:50.152Z,2.13
2023-08-07T23:22:16.603Z,1.75
2023-08-07T23:24:43.040Z,2.20
2023-08-07T23:27:09.482Z,2.50
2023-08-07T23:29:36.050Z,2.30
2023-08-07T23:32:02.604Z,2.30
2023-08-07T23:34:28.974Z,2.30
2023-08-07T23:36:55.392Z,2.53
2023-08-07T23:39:21.800Z,2.50
2023-08-07T23:41:48.201Z,2.77
2023-08-07T23:44:14.617Z,2.30
2023-08-07T23:46:41.054Z,2.53
2023-08-07T23:49:07.577Z,2.33
2023-08-07T23:51:34.323Z,2.20
2023-08-07T23:54:00.745Z,2.03
2023-08-07T23:56:27.163Z,2.97
2023-08-07T23:58:53.604Z,2.13
